Time;durP1;ratioP1;P1;durP2;ratioP2;P2;SDS_P1;SDS_P2;PMS_P1;PMS_P2;Temp;Humidity;BMP_temperature;BMP_pressure;BME280_temperature;BME280_humidity;BME280_pressure;Samples;Min_cycle;Max_cycle;Signal;HPM_P1;HPM_P2
2021/10/28 00:14:40;;;;;;;9.95;4.00;;;;;;;7.51;85.16;99077.78;4933070;29;20044;-54
2021/10/28 00:17:11;;;;;;;10.07;5.57;;;;;;;7.52;85.01;99072.56;4918659;29;20047;-54
2021/10/28 00:19:39;;;;;;;10.32;3.75;;;;;;;7.56;85.09;99073.31;4930449;29;20043;-53
2021/10/28 00:22:06;;;;;;;5.80;3.58;;;;;;;7.57;84.68;99059.50;4932860;29;20040;-54
2021/10/28 00:24:32;;;;;;;11.85;5.50;;;;;;;7.48;85.29;99044.28;4916002;29;20428;-54
2021/10/28 00:26:58;;;;;;;8.95;4.45;;;;;;;7.56;85.08;99065.56;4921609;29;20044;-54
2021/10/28 00:29:26;;;;;;;6.32;3.85;;;;;;;7.56;85.15;99050.88;4917382;29;20098;-55
2021/10/28 00:31:56;;;;;;;12.77;5.85;;;;;;;7.64;84.63;99045.47;4913729;29;20076;-53
2021/10/28 00:34:22;;;;;;;8.32;4.78;;;;;;;7.65;84.66;99035.06;4897494;29;20437;-52
2021/10/28 00:36:49;;;;;;;11.50;5.68;;;;;;;7.61;84.73;99036.06;4920212;29;20095;-51
2021/10/28 00:39:15;;;;;;;9.02;4.13;;;;;;;7.53;85.21;99037.22;4913772;29;20040;-51
2021/10/28 00:41:42;;;;;;;11.75;4.85;;;;;;;7.53;85.44;99022.53;4927932;29;20047;-51
2021/10/28 00:44:08;;;;;;;10.40;4.78;;;;;;;7.55;85.51;99027.66;4914865;29;20039;-54
2021/10/28 00:46:36;;;;;;;14.48;5.30;;;;;;;7.57;85.42;99008.59;4920956;29;20179;-55
2021/10/28 00:49:04;;;;;;;9.25;4.90;;;;;;;7.61;85.19;99005.03;4912394;29;20509;-53
2021/10/28 00:51:31;;;;;;;7.88;4.47;;;;;;;7.63;84.72;99007.56;4912506;29;20044;-55
2021/10/28 00:53:59;;;;;;;13.52;4.80;;;;;;;7.66;84.82;98991.94;4910357;29;20050;-54
2021/10/28 00:56:26;;;;;;;10.32;4.78;;;;;;;7.64;84.88;98997.13;4917272;29;20043;-56
2021/10/28 00:58:53;;;;;;;9.95;5.78;;;;;;;7.65;84.44;98996.25;4929820;29;20122;-56
2021/10/28 01:01:19;;;;;;;10.90;5.35;;;;;;;7.65;84.99;98985.91;4927143;29;20040;-54
2021/10/28 01:03:45;;;;;;;14.25;5.18;;;;;;;7.71;84.73;99004.69;4913612;29;20523;-55
2021/10/28 01:06:12;;;;;;;11.80;6.32;;;;;;;7.66;84.92;98969.50;4921822;29;20050;-51
2021/10/28 01:08:42;;;;;;;10.15;4.95;;;;;;;7.70;84.75;98969.38;4911566;29;20044;-52
2021/10/28 01:11:09;;;;;;;7.15;3.83;;;;;;;7.74;85.00;98973.56;4897537;29;20639;-56
2021/10/28 01:13:36;;;;;;;9.25;5.35;;;;;;;7.74;84.75;98969.25;4914299;29;20515;-52
2021/10/28 01:16:04;;;;;;;12.80;6.03;;;;;;;7.78;84.34;98944.09;4908763;29;20074;-54
2021/10/28 01:18:30;;;;;;;12.77;6.10;;;;;;;7.78;84.39;98952.72;4915445;29;20539;-52
2021/10/28 01:20:57;;;;;;;9.80;5.63;;;;;;;7.79;84.41;98941.47;4915104;29;20130;-51
2021/10/28 01:23:24;;;;;;;12.65;6.60;;;;;;;7.82;84.33;98938.75;4897986;29;20051;-51
2021/10/28 01:25:58;;;;;;;9.68;5.50;;;;;;;7.81;84.46;98921.53;4930724;29;20051;-55
2021/10/28 01:28:26;;;;;;;9.07;5.18;;;;;;;7.85;84.06;98941.22;4917440;29;20512;-54
2021/10/28 01:31:01;;;;;;;11.25;5.20;;;;;;;7.83;84.22;98930.09;4925901;29;20409;-55
2021/10/28 01:33:27;;;;;;;11.88;6.47;;;;;;;7.80;84.41;98930.19;4911502;29;20055;-56
2021/10/28 01:35:54;;;;;;;12.93;6.22;;;;;;;7.81;85.10;98923.28;4911430;29;20500;-54
2021/10/28 01:38:20;;;;;;;9.70;4.60;;;;;;;7.78;85.02;98920.81;4916499;29;20055;-56
2021/10/28 01:41:03;;;;;;;10.77;6.72;;;;;;;7.80;85.42;98913.84;4916821;29;20039;-53
2021/10/28 01:43:30;;;;;;;13.88;6.05;;;;;;;7.83;85.43;98919.75;4922844;29;20040;-55
2021/10/28 01:45:57;;;;;;;8.23;5.30;;;;;;;7.81;85.86;98911.19;4912982;29;20050;-54
2021/10/28 01:48:23;;;;;;;14.68;7.00;;;;;;;7.79;86.05;98907.84;4916644;29;20040;-52
2021/10/28 01:50:50;;;;;;;15.85;7.10;;;;;;;7.76;86.58;98894.13;4911962;29;20524;-56
2021/10/28 01:53:16;;;;;;;12.88;5.70;;;;;;;7.73;86.38;98882.16;4924167;29;20074;-54
2021/10/28 01:55:43;;;;;;;12.48;5.97;;;;;;;7.64;86.61;98872.16;4914995;29;20036;-54
2021/10/28 01:58:11;;;;;;;10.90;6.28;;;;;;;7.68;87.07;98872.88;4923352;29;20079;-53
2021/10/28 02:00:39;;;;;;;12.93;6.70;;;;;;;7.73;87.23;98874.41;4894462;29;20060;-56
2021/10/28 02:03:05;;;;;;;13.73;6.95;;;;;;;7.74;87.33;98881.28;4913368;29;20645;-53
2021/10/28 02:05:31;;;;;;;9.63;5.78;;;;;;;7.74;87.85;98870.94;4898397;29;20047;-52
2021/10/28 02:07:57;;;;;;;9.25;6.40;;;;;;;7.66;87.78;98863.44;4915549;29;20048;-54
2021/10/28 02:10:23;;;;;;;17.08;5.85;;;;;;;7.73;88.34;98868.38;4912971;29;20096;-55
2021/10/28 02:12:50;;;;;;;14.07;7.82;;;;;;;7.69;88.63;98859.91;4912240;29;20039;-53
2021/10/28 02:15:18;;;;;;;13.30;7.55;;;;;;;7.71;89.63;98852.06;4908068;29;20040;-52
2021/10/28 02:17:45;;;;;;;17.02;8.88;;;;;;;7.78;89.43;98849.22;4912363;29;20177;-52
2021/10/28 02:20:14;;;;;;;11.25;7.05;;;;;;;7.75;89.85;98838.97;4895994;29;20044;-56
2021/10/28 02:22:41;;;;;;;13.35;7.40;;;;;;;7.68;90.45;98840.09;4917501;29;20040;-54
2021/10/28 02:25:07;;;;;;;15.30;8.00;;;;;;;7.62;91.38;98825.66;4919411;29;20048;-53
2021/10/28 02:27:34;;;;;;;10.90;7.18;;;;;;;7.63;91.42;98822.16;4919624;29;20571;-51
2021/10/28 02:30:00;;;;;;;18.92;8.32;;;;;;;7.57;91.22;98808.59;4915627;29;20642;-51
2021/10/28 02:32:26;;;;;;;13.82;7.38;;;;;;;7.60;91.46;98819.66;4916519;29;20044;-55
2021/10/28 02:34:52;;;;;;;16.02;7.07;;;;;;;7.55;92.03;98813.81;4915719;29;20575;-54
2021/10/28 02:37:19;;;;;;;14.65;7.40;;;;;;;7.58;92.19;98811.13;4916106;29;20063;-55
2021/10/28 02:39:48;;;;;;;13.63;8.10;;;;;;;7.61;91.68;98802.41;4916546;29;20040;-52
2021/10/28 02:42:17;;;;;;;12.15;7.57;;;;;;;7.56;92.31;98775.88;4915200;29;20071;-54
2021/10/28 02:44:47;;;;;;;16.75;8.30;;;;;;;7.55;92.03;98789.69;4898167;29;20056;-52
2021/10/28 02:47:15;;;;;;;12.25;7.82;;;;;;;7.60;91.95;98791.22;4915167;29;20044;-49
2021/10/28 02:49:41;;;;;;;15.75;8.52;;;;;;;7.58;92.21;98792.19;4888762;29;20039;-52
2021/10/28 02:52:08;;;;;;;14.25;9.45;;;;;;;7.49;92.18;98766.63;4915181;29;20067;-52
2021/10/28 02:54:35;;;;;;;13.60;8.38;;;;;;;7.62;91.69;98786.84;4920310;29;20429;-55
2021/10/28 02:57:01;;;;;;;14.82;8.63;;;;;;;7.61;91.21;98776.53;4919158;29;20632;-55
2021/10/28 02:59:27;;;;;;;16.48;8.60;;;;;;;7.56;91.62;98779.31;4898179;29;20048;-54
2021/10/28 03:01:54;;;;;;;16.38;8.75;;;;;;;7.50;92.69;98766.59;4899899;29;20043;-54
2021/10/28 03:04:23;;;;;;;17.90;8.85;;;;;;;7.33;93.30;98739.69;4891984;29;20048;-54
2021/10/28 03:06:50;;;;;;;7.18;5.03;;;;;;;7.39;95.19;98773.03;4900509;29;20066;-56
2021/10/28 03:09:18;;;;;;;14.07;7.30;;;;;;;7.26;96.61;98775.25;4914982;29;20127;-52
2021/10/28 03:11:47;;;;;;;12.87;7.63;;;;;;;7.16;98.50;98766.13;4914994;29;20051;-53
2021/10/28 03:14:15;;;;;;;15.40;6.82;;;;;;;7.10;100.00;98767.19;4915441;29;20044;-56
2021/10/28 03:27:44;;;;;;;17.67;9.23;;;;;;;6.96;100.00;98760.81;4934242;29;20071;-56
2021/10/28 03:30:10;;;;;;;15.10;8.38;;;;;;;6.95;100.00;98756.53;4922715;29;20484;-55
2021/10/28 03:32:37;;;;;;;17.10;8.90;;;;;;;6.95;100.00;98743.63;4913830;29;20050;-53
2021/10/28 03:35:06;;;;;;;15.50;7.97;;;;;;;6.93;100.00;98751.41;4914274;29;20134;-53
2021/10/28 03:53:30;;;;;;;12.90;8.05;;;;;;;6.74;100.00;98738.31;4933812;29;20047;-54
2021/10/28 03:58:50;;;;;;;16.58;8.43;;;;;;;6.63;100.00;98735.22;4910036;29;20051;-54
2021/10/28 04:30:18;;;;;;;21.45;9.98;;;;;;;6.55;100.00;98719.13;4897983;29;20158;-53
2021/10/28 04:32:45;;;;;;;10.55;5.80;;;;;;;6.55;100.00;98733.78;4912050;29;20040;-53
2021/10/28 04:35:11;;;;;;;16.75;8.52;;;;;;;6.55;100.00;98726.88;4915684;29;20090;-52
2021/10/28 04:37:37;;;;;;;14.90;6.63;;;;;;;6.57;100.00;98716.50;4896529;29;20069;-54
2021/10/28 04:40:05;;;;;;;18.80;9.98;;;;;;;6.54;100.00;98701.94;4910288;29;20048;-55
2021/10/28 04:42:31;;;;;;;12.93;7.30;;;;;;;6.53;100.00;98709.78;4888641;29;20032;-52
2021/10/28 04:44:57;;;;;;;11.98;6.47;;;;;;;6.61;100.00;98723.25;4894126;29;20103;-52
2021/10/28 04:47:23;;;;;;;10.73;5.45;;;;;;;6.63;100.00;98708.56;4912569;29;20040;-50
2021/10/28 04:49:49;;;;;;;19.20;9.45;;;;;;;6.60;100.00;98699.16;4896369;29;20142;-51
2021/10/28 04:52:15;;;;;;;10.77;6.47;;;;;;;6.64;100.00;98708.53;4905589;29;20135;-55
2021/10/28 04:54:42;;;;;;;12.73;6.38;;;;;;;6.66;100.00;98711.88;4911496;29;20139;-52
2021/10/28 04:57:08;;;;;;;19.10;9.30;;;;;;;6.70;100.00;98712.59;4908621;29;20044;-54
2021/10/28 04:59:34;;;;;;;19.35;10.48;;;;;;;6.72;100.00;98714.25;4907030;29;20048;-57
2021/10/28 05:02:00;;;;;;;13.43;8.23;;;;;;;6.81;100.00;98702.75;4908160;29;20135;-54
2021/10/28 05:04:26;;;;;;;14.43;7.07;;;;;;;6.84;100.00;98706.97;4919479;29;20126;-51
2021/10/28 05:06:52;;;;;;;17.65;7.28;;;;;;;6.82;100.00;98705.28;4910487;29;20052;-52
2021/10/28 05:09:23;;;;;;;10.40;5.78;;;;;;;6.85;100.00;98730.19;4911870;29;20127;-51
2021/10/28 05:11:49;;;;;;;15.07;7.53;;;;;;;6.84;100.00;98714.72;4913988;29;20071;-49
2021/10/28 05:14:15;;;;;;;18.17;7.70;;;;;;;6.88;100.00;98726.63;4924594;29;20074;-52
2021/10/28 05:16:41;;;;;;;14.95;7.15;;;;;;;6.85;100.00;98708.66;4905823;29;20531;-50
2021/10/28 05:19:07;;;;;;;12.48;7.82;;;;;;;6.86;100.00;98708.59;4918449;29;20056;-53
2021/10/28 05:21:33;;;;;;;14.70;7.10;;;;;;;6.77;100.00;98685.66;4927055;29;20612;-55
2021/10/28 05:23:59;;;;;;;13.43;5.72;;;;;;;6.89;100.00;98720.56;4912702;29;20087;-51
2021/10/28 05:26:25;;;;;;;12.45;5.28;;;;;;;6.79;100.00;98704.56;4913286;29;20509;-52
2021/10/28 05:28:51;;;;;;;17.73;7.55;;;;;;;6.89;100.00;98716.25;4926837;29;20509;-54
2021/10/28 05:31:17;;;;;;;17.73;8.25;;;;;;;6.79;100.00;98697.66;4911431;29;20099;-54
2021/10/28 05:33:43;;;;;;;16.98;8.38;;;;;;;6.92;100.00;98720.47;4885300;29;20059;-52
2021/10/28 05:36:09;;;;;;;11.65;5.43;;;;;;;6.89;100.00;98711.09;4912444;29;20047;-53
2021/10/28 05:38:35;;;;;;;15.50;6.75;;;;;;;6.94;100.00;98719.53;4913436;29;20043;-53
2021/10/28 05:41:01;;;;;;;8.85;5.00;;;;;;;6.95;100.00;98717.78;4921494;29;20043;-54
2021/10/28 05:43:27;;;;;;;15.38;5.85;;;;;;;6.94;100.00;98711.78;4910018;29;20044;-55
2021/10/28 05:45:53;;;;;;;11.75;6.50;;;;;;;7.02;100.00;98721.81;4915106;29;20424;-51
2021/10/28 05:48:19;;;;;;;10.35;5.97;;;;;;;7.11;100.00;98717.19;4920608;29;20044;-53
2021/10/28 05:50:46;;;;;;;17.00;7.47;;;;;;;7.11;100.00;98717.19;4912390;29;20043;-54
2021/10/28 05:53:13;;;;;;;13.35;6.93;;;;;;;7.18;100.00;98726.38;4913013;29;20115;-52
2021/10/28 05:55:39;;;;;;;4.93;3.13;;;;;;;7.16;100.00;98723.03;4912925;29;20044;-48
2021/10/28 05:58:05;;;;;;;12.80;6.15;;;;;;;7.20;100.00;98716.00;4913265;29;20051;-53
2021/10/28 06:00:31;;;;;;;14.52;6.93;;;;;;;7.21;100.00;98710.78;4896806;29;20138;-52
2021/10/28 06:02:58;;;;;;;15.85;6.93;;;;;;;7.19;100.00;98704.81;4916199;29;20413;-48
2021/10/28 06:05:24;;;;;;;5.78;3.97;;;;;;;7.30;100.00;98711.34;4922456;29;20523;-53
2021/10/28 06:07:50;;;;;;;8.25;4.97;;;;;;;7.33;100.00;98712.06;4917049;29;20476;-53
2021/10/28 06:10:17;;;;;;;11.45;5.55;;;;;;;7.40;100.00;98716.13;4916470;29;20095;-57
2021/10/28 06:12:47;;;;;;;11.13;5.45;;;;;;;7.39;100.00;98714.41;4900727;29;20091;-52
2021/10/28 06:15:14;;;;;;;18.40;7.30;;;;;;;7.42;100.00;98716.91;4903712;29;20630;-50
2021/10/28 06:17:48;;;;;;;8.38;4.55;;;;;;;7.46;100.00;98707.28;4909958;29;20062;-52
2021/10/28 06:20:15;;;;;;;9.63;5.55;;;;;;;7.47;100.00;98720.16;4916455;29;20044;-50
2021/10/28 06:22:41;;;;;;;11.75;6.18;;;;;;;7.50;100.00;98730.38;4918079;29;20058;-49
2021/10/28 06:25:07;;;;;;;12.05;6.47;;;;;;;7.59;100.00;98724.00;4913195;29;20044;-50
2021/10/28 06:27:33;;;;;;;11.25;6.18;;;;;;;7.66;100.00;98723.75;4930670;29;20067;-53
2021/10/28 06:29:59;;;;;;;9.13;5.57;;;;;;;7.65;100.00;98729.81;4913639;29;20070;-54
2021/10/28 06:32:25;;;;;;;8.63;5.00;;;;;;;7.60;100.00;98710.19;4916264;29;20048;-53
2021/10/28 06:34:51;;;;;;;13.20;6.68;;;;;;;7.72;100.00;98732.16;4915655;29;20061;-53
2021/10/28 06:37:18;;;;;;;9.27;4.90;;;;;;;7.78;100.00;98727.63;4930769;29;20043;-50
2021/10/28 06:39:44;;;;;;;9.60;5.65;;;;;;;7.85;100.00;98723.06;4917467;29;20520;-48
2021/10/28 06:42:14;;;;;;;8.20;4.78;;;;;;;7.89;100.00;98733.22;4900250;29;20051;-51
2021/10/28 06:44:43;;;;;;;3.55;2.42;;;;;;;7.80;100.00;98723.19;4910985;29;20044;-53
2021/10/28 06:47:09;;;;;;;9.30;4.57;;;;;;;7.93;100.00;98726.16;4928782;29;20052;-58
2021/10/28 06:49:39;;;;;;;9.23;3.45;;;;;;;7.94;100.00;98722.69;4917947;29;20052;-57
2021/10/28 06:52:08;;;;;;;6.90;4.55;;;;;;;8.01;100.00;98726.69;4911648;29;20099;-56
2021/10/28 06:54:36;;;;;;;7.05;4.60;;;;;;;8.01;100.00;98721.53;4914734;29;20068;-56
2021/10/28 07:04:46;;;;;;;6.43;4.00;;;;;;;8.04;100.00;98716.25;4897998;29;20043;-55
2021/10/28 07:07:13;;;;;;;9.00;5.10;;;;;;;8.07;100.00;98737.66;4883222;29;20215;-54
2021/10/28 07:09:43;;;;;;;6.80;4.15;;;;;;;8.11;100.00;98738.41;4915413;29;20044;-57
2021/10/28 07:12:18;;;;;;;8.02;4.70;;;;;;;8.12;100.00;98739.22;4929336;29;20044;-58
2021/10/28 07:14:48;;;;;;;9.70;3.47;;;;;;;8.17;100.00;98743.31;4915598;29;20040;-57
2021/10/28 07:23:30;;;;;;;2.80;1.92;;;;;;;8.23;100.00;98743.06;4912700;29;20543;-57
2021/10/28 07:58:29;;;;;;;9.75;4.60;;;;;;;8.93;100.00;98755.75;4914367;29;20044;-55
2021/10/28 08:17:07;;;;;;;8.23;2.55;;;;;;;9.16;100.00;98768.56;4913456;29;20050;-56
2021/10/28 08:19:45;;;;;;;5.53;3.47;;;;;;;9.18;100.00;98764.16;4914363;29;20051;-55
2021/10/28 08:22:17;;;;;;;5.03;3.08;;;;;;;9.20;100.00;98764.97;4914698;29;20131;-62
2021/10/28 08:30:14;;;;;;;5.10;3.58;;;;;;;9.40;100.00;98774.44;4914221;29;20036;-56
2021/10/28 08:32:40;;;;;;;6.45;3.28;;;;;;;9.49;100.00;98778.38;4913784;29;20603;-57
2021/10/28 08:35:08;;;;;;;6.03;3.13;;;;;;;9.51;100.00;98784.34;4897210;29;20209;-50
2021/10/28 08:38:08;;;;;;;7.32;4.20;;;;;;;9.41;100.00;98778.72;4922302;29;20463;-58
2021/10/28 08:40:27;;;;;;;5.35;3.22;;;;;;;9.51;100.00;98782.59;4931170;29;20096;-56
2021/10/28 08:42:54;;;;;;;5.85;3.53;;;;;;;9.57;100.00;98784.94;4915471;29;20067;-56
2021/10/28 08:45:21;;;;;;;5.68;3.80;;;;;;;9.67;100.00;98790.53;4913989;29;20528;-53
2021/10/28 08:47:54;;;;;;;5.60;3.22;;;;;;;9.79;100.00;98792.56;4914146;29;20039;-55
2021/10/28 08:50:37;;;;;;;5.55;3.00;;;;;;;10.32;100.00;98794.47;4896835;29;20611;-54
2021/10/28 08:56:18;;;;;;;4.05;2.97;;;;;;;10.75;100.00;98796.69;4892929;29;20143;-54
2021/10/28 09:29:38;;;;;;;2.67;2.30;;;;;;;11.18;100.00;98829.22;4896425;29;20135;-57
2021/10/28 09:43:52;;;;;;;2.15;1.67;;;;;;;11.39;98.76;98835.06;4897961;29;20607;-58
2021/10/28 09:51:33;;;;;;;2.00;1.48;;;;;;;11.54;96.04;98839.50;4909950;29;20205;-58
2021/10/28 09:54:07;;;;;;;4.20;1.40;;;;;;;11.73;93.30;98842.00;4914443;29;20040;-56
2021/10/28 09:59:23;;;;;;;2.00;1.40;;;;;;;12.09;92.19;98850.47;4914426;29;20048;-54
2021/10/28 10:01:49;;;;;;;2.83;1.50;;;;;;;12.30;90.93;98851.06;4915498;29;20051;-55
2021/10/28 10:04:16;;;;;;;2.95;1.35;;;;;;;12.44;89.62;98860.75;4913748;29;20079;-56
2021/10/28 10:06:44;;;;;;;1.83;1.30;;;;;;;12.47;89.22;98871.00;4915785;29;20535;-56
2021/10/28 10:09:11;;;;;;;1.98;1.33;;;;;;;12.36;89.16;98865.53;4913857;29;20043;-54
2021/10/28 10:11:37;;;;;;;2.95;1.38;;;;;;;12.28;89.31;98858.16;4898705;29;20041;-54
2021/10/28 10:14:03;;;;;;;2.28;1.38;;;;;;;12.29;89.15;98860.69;4881212;29;20051;-55
2021/10/28 10:16:29;;;;;;;4.55;1.33;;;;;;;12.32;89.09;98860.50;4914430;29;20055;-55
2021/10/28 10:18:55;;;;;;;1.55;1.02;;;;;;;12.33;88.35;98869.16;4896823;29;20036;-55
2021/10/28 10:30:04;;;;;;;6.28;1.15;;;;;;;12.38;86.71;98880.19;4849285;29;20046;-53
2021/10/28 12:44:18;;;;;;;4.30;2.10;;;;;;;12.59;71.18;99144.13;4914064;29;20048;-55
2021/10/28 13:34:53;;;;;;;2.53;1.25;;;;;;;12.12;71.14;99241.16;4912436;29;20044;-53
2021/10/28 14:22:10;;;;;;;1.20;0.80;;;;;;;11.14;81.25;99393.97;4914284;29;20179;-52
2021/10/28 15:29:18;;;;;;;2.38;0.80;;;;;;;10.49;80.34;99561.19;4912692;29;20055;-57
2021/10/28 15:37:35;;;;;;;1.65;0.70;;;;;;;10.44;80.07;99571.75;4914770;29;20499;-59
2021/10/28 15:51:40;;;;;;;2.50;1.20;;;;;;;10.17;80.42;99615.13;4914066;29;20050;-58
2021/10/28 16:21:46;;;;;;;;;;;;;;;;;;;;;
2021/10/28 16:23:20;;;;;;;2.05;0.63;;;;;;;9.85;74.83;99702.75;4902586;29;20423;-56
2021/10/28 16:25:47;;;;;;;2.85;0.88;;;;;;;9.79;74.35;99704.63;4900905;29;20044;-56
2021/10/28 16:28:17;;;;;;;2.90;1.30;;;;;;;9.79;74.68;99714.16;4899641;29;20098;-55
2021/10/28 16:30:47;;;;;;;5.90;1.00;;;;;;;9.79;74.47;99721.94;4911579;29;20047;-56
2021/10/28 16:33:16;;;;;;;2.40;1.05;;;;;;;9.79;74.40;99733.19;4923398;29;20055;-53
2021/10/28 16:35:43;;;;;;;1.13;0.90;;;;;;;9.76;74.80;99732.44;4913277;29;20079;-55
2021/10/28 16:38:10;;;;;;;1.23;0.80;;;;;;;9.75;74.62;99736.78;4912020;29;20051;-58
2021/10/28 16:40:37;;;;;;;3.35;1.90;;;;;;;9.76;74.39;99742.84;4908980;29;20508;-55
2021/10/28 16:43:03;;;;;;;2.75;1.30;;;;;;;9.68;74.69;99743.03;4926742;29;20531;-59
2021/10/28 16:45:29;;;;;;;3.03;1.30;;;;;;;9.74;74.30;99753.25;4909457;29;20127;-55
2021/10/28 16:47:55;;;;;;;2.20;1.15;;;;;;;9.58;74.65;99741.63;4924534;29;20040;-55
2021/10/28 16:50:21;;;;;;;2.75;1.33;;;;;;;9.73;74.89;99763.72;4913907;29;20043;-54
2021/10/28 16:52:47;;;;;;;3.15;1.27;;;;;;;9.72;74.24;99774.97;4923551;29;20107;-54
2021/10/28 16:55:13;;;;;;;2.95;1.55;;;;;;;9.63;73.92;99765.69;4911381;29;20403;-54
2021/10/28 16:57:41;;;;;;;3.63;1.10;;;;;;;9.70;74.25;99784.53;4920252;29;20063;-53
2021/10/28 17:00:08;;;;;;;5.47;1.88;;;;;;;9.68;73.68;99792.38;4911671;29;20043;-56
2021/10/28 17:02:34;;;;;;;1.92;1.40;;;;;;;9.62;73.79;99787.38;4915344;29;20043;-56
2021/10/28 17:05:00;;;;;;;2.58;1.50;;;;;;;9.67;73.56;99800.22;4886384;29;20039;-58
2021/10/28 17:07:26;;;;;;;3.85;1.38;;;;;;;9.55;73.35;99788.44;4913288;29;20047;-55
2021/10/28 17:09:52;;;;;;;5.57;1.42;;;;;;;9.65;72.66;99808.03;4914167;29;20083;-57
2021/10/28 17:12:20;;;;;;;3.42;1.55;;;;;;;9.62;72.20;99818.53;4936993;29;20048;-56
2021/10/28 17:14:46;;;;;;;4.32;1.60;;;;;;;9.63;72.09;99822.81;4890046;29;20580;-55
2021/10/28 17:17:11;;;;;;;3.05;1.20;;;;;;;9.65;72.43;99822.75;4902548;29;20050;-55
2021/10/28 17:19:38;;;;;;;1.90;1.30;;;;;;;9.60;71.67;99822.06;4881737;29;20126;-55
2021/10/28 17:22:04;;;;;;;3.15;1.42;;;;;;;9.58;71.71;99824.69;4916859;29;20074;-56
2021/10/28 17:24:49;;;;;;;2.67;1.40;;;;;;;9.58;71.71;99819.47;4912235;29;20095;-56
2021/10/28 17:27:18;;;;;;;4.50;2.47;;;;;;;9.54;71.40;99828.25;4884094;29;20044;-53
2021/10/28 17:29:44;;;;;;;4.55;2.63;;;;;;;9.48;71.46;99815.44;4912861;29;20044;-55
2021/10/28 17:32:10;;;;;;;4.28;2.53;;;;;;;9.55;71.52;99826.50;4923469;29;20043;-55
2021/10/28 17:34:36;;;;;;;3.72;2.50;;;;;;;9.53;71.32;99829.16;4895874;29;20059;-54
2021/10/28 17:37:04;;;;;;;3.60;2.60;;;;;;;9.54;71.15;99827.41;4914035;29;20074;-54
2021/10/28 17:39:30;;;;;;;5.05;2.63;;;;;;;9.53;70.48;99823.97;4859127;29;20039;-55
2021/10/28 17:42:00;;;;;;;3.25;2.30;;;;;;;9.54;70.66;99824.81;4895874;29;20048;-57
2021/10/28 17:44:41;;;;;;;3.50;2.72;;;;;;;9.53;69.75;99833.47;4910015;29;20505;-56
2021/10/28 17:47:07;;;;;;;5.03;3.28;;;;;;;9.51;69.58;99830.94;4913668;29;20048;-59
2021/10/28 17:49:36;;;;;;;5.75;2.97;;;;;;;9.49;69.62;99837.91;4910082;29;20040;-55
2021/10/28 17:52:03;;;;;;;3.90;2.70;;;;;;;9.49;69.07;99845.69;4912638;29;20577;-55
2021/10/28 17:54:30;;;;;;;5.07;2.80;;;;;;;9.48;68.85;99841.41;4913147;29;20296;-54
2021/10/28 17:56:56;;;;;;;3.03;2.42;;;;;;;9.46;68.35;99840.59;4895267;29;20424;-55
2021/10/28 17:59:22;;;;;;;3.60;2.30;;;;;;;9.46;67.50;99848.41;4882444;29;20050;-57
2021/10/28 18:01:49;;;;;;;3.75;2.15;;;;;;;9.42;67.62;99851.94;4903746;29;20567;-55
2021/10/28 18:04:16;;;;;;;6.93;2.63;;;;;;;9.43;67.24;99852.78;4899621;29;20126;-54
2021/10/28 18:06:42;;;;;;;4.65;2.58;;;;;;;9.42;67.42;99864.09;4912168;29;20146;-52
2021/10/28 18:09:09;;;;;;;3.80;2.75;;;;;;;9.42;67.38;99864.09;4914855;29;20036;-51
2021/10/28 18:11:35;;;;;;;4.05;2.90;;;;;;;9.43;67.00;99870.97;4926732;29;20437;-54
2021/10/28 18:14:01;;;;;;;3.97;2.92;;;;;;;9.35;67.41;99868.59;4914255;29;20040;-54
2021/10/28 18:16:28;;;;;;;4.47;2.35;;;;;;;9.41;66.96;99896.13;4897601;29;20043;-52
2021/10/28 18:18:55;;;;;;;4.70;2.67;;;;;;;9.38;67.13;99891.84;4927680;29;20046;-54
2021/10/28 18:21:25;;;;;;;3.75;2.00;;;;;;;9.40;67.89;99897.84;4914554;29;20052;-55
2021/10/28 18:23:53;;;;;;;2.72;1.80;;;;;;;9.27;67.47;99884.34;4914101;29;20048;-53
2021/10/28 18:26:20;;;;;;;4.35;1.92;;;;;;;9.40;67.64;99908.25;4899898;29;20050;-53
2021/10/28 18:28:50;;;;;;;3.53;2.13;;;;;;;9.40;67.72;99915.16;4912710;29;20047;-58
2021/10/28 18:31:17;;;;;;;2.88;2.33;;;;;;;9.35;67.62;99912.69;4912361;29;20424;-51
2021/10/28 18:33:43;;;;;;;3.22;1.90;;;;;;;9.40;67.22;99920.34;4913947;29;20159;-55
2021/10/28 18:36:12;;;;;;;3.75;2.17;;;;;;;9.35;67.46;99916.16;4915420;29;20047;-56
2021/10/28 18:38:44;;;;;;;5.22;3.10;;;;;;;9.42;67.67;99928.97;4885811;29;20075;-54
2021/10/28 18:41:12;;;;;;;2.92;2.25;;;;;;;9.42;67.95;99937.56;4897953;29;20039;-58
2021/10/28 18:43:39;;;;;;;3.65;2.50;;;;;;;9.41;67.63;99937.63;4927498;29;20067;-57
2021/10/28 18:46:05;;;;;;;3.08;2.08;;;;;;;9.43;67.26;99944.47;4917593;29;20044;-54
2021/10/28 18:48:31;;;;;;;2.88;1.90;;;;;;;9.50;67.50;99958.16;4914944;29;20088;-51
2021/10/28 18:50:58;;;;;;;3.00;1.73;;;;;;;9.50;67.08;99964.19;4914948;29;20043;-54
2021/10/28 18:53:25;;;;;;;2.08;1.42;;;;;;;9.52;66.58;99966.75;4886747;29;20112;-52
2021/10/28 18:55:52;;;;;;;3.20;1.95;;;;;;;9.53;66.76;99974.50;4914634;29;20040;-54
2021/10/28 18:58:19;;;;;;;3.22;2.28;;;;;;;9.55;66.37;99970.13;4916650;29;20048;-52
2021/10/28 19:00:48;;;;;;;2.92;2.10;;;;;;;9.51;67.24;99959.88;4917152;29;20071;-54
2021/10/28 19:03:19;;;;;;;4.15;1.80;;;;;;;9.53;66.92;99965.84;4903545;29;20040;-57
2021/10/28 19:05:45;;;;;;;3.83;2.60;;;;;;;9.63;67.00;99978.56;4903327;29;20099;-52
2021/10/28 19:08:12;;;;;;;4.60;2.35;;;;;;;9.58;66.97;99964.00;4919493;29;20081;-52
2021/10/28 19:10:38;;;;;;;3.85;2.08;;;;;;;9.67;67.20;99979.34;4916057;29;20048;-55
2021/10/28 19:13:04;;;;;;;3.10;2.08;;;;;;;9.65;67.46;99971.59;4923093;29;20044;-57
2021/10/28 19:15:30;;;;;;;4.32;2.30;;;;;;;9.71;67.59;99986.16;4909420;29;20117;-57
2021/10/28 19:17:57;;;;;;;3.58;2.63;;;;;;;9.72;66.87;99990.47;4907642;29;20040;-52
2021/10/28 19:20:36;;;;;;;4.00;2.70;;;;;;;9.72;67.36;99986.13;5313784;23;20042;31
2021/10/28 19:23:04;;;;;;;3.78;2.55;;;;;;;9.63;66.93;99975.97;4911005;29;20046;-54
2021/10/28 19:25:30;;;;;;;4.55;2.88;;;;;;;9.72;66.69;99993.91;4950941;29;20047;-56
2021/10/28 19:27:56;;;;;;;4.88;3.00;;;;;;;9.75;66.47;99998.16;4935682;29;20134;-56
2021/10/28 19:30:36;;;;;;;7.32;2.83;;;;;;;9.76;66.07;99992.09;4951395;29;20431;-56
2021/10/28 19:33:07;;;;;;;5.20;3.00;;;;;;;9.78;67.11;100004.16;4937658;29;20040;-53
2021/10/28 19:35:36;;;;;;;7.20;3.70;;;;;;;9.80;67.32;100006.69;4935918;29;20511;-54
2021/10/28 19:38:14;;;;;;;5.97;3.58;;;;;;;9.79;67.48;100008.41;4935856;29;20057;-53
2021/10/28 19:48:30;;;;;;;7.30;3.70;;;;;;;9.79;68.34;100026.59;4948331;29;20065;-57
2021/10/28 19:50:56;;;;;;;5.55;3.88;;;;;;;9.80;68.19;100022.25;4935868;29;20062;-57
2021/10/28 19:53:22;;;;;;;5.72;3.80;;;;;;;9.78;68.34;100024.06;4949311;29;20039;-55
2021/10/28 19:55:48;;;;;;;5.63;3.97;;;;;;;9.81;68.10;100020.53;4937339;28;20088;-53
2021/10/28 19:58:22;;;;;;;6.63;3.70;;;;;;;9.83;67.83;100027.41;4948939;28;20527;-55
2021/10/28 20:00:58;;;;;;;8.50;4.13;;;;;;;9.87;68.74;100025.56;4947457;29;20070;-56
2021/10/28 20:03:38;;;;;;;6.07;3.75;;;;;;;9.89;68.59;100034.19;4936539;29;20039;-56
2021/10/28 20:22:22;;;;;;;8.68;4.30;;;;;;;9.92;68.31;100018.50;4948806;29;20094;-51
2021/10/28 20:24:48;;;;;;;10.20;4.80;;;;;;;9.91;67.90;100033.22;4948639;28;20047;-54
2021/10/28 20:27:14;;;;;;;6.97;4.53;;;;;;;9.97;67.75;100034.81;4931018;29;20580;-54
2021/10/28 20:29:40;;;;;;;9.38;4.80;;;;;;;9.99;67.51;100046.88;4947747;29;20435;-57
2021/10/28 20:32:06;;;;;;;8.52;4.25;;;;;;;9.95;67.55;100039.19;4928578;28;20035;-58
2021/10/28 20:34:37;;;;;;;12.70;5.40;;;;;;;9.98;67.68;100055.56;4899854;29;20042;-59
2021/10/28 20:37:08;;;;;;;8.35;4.47;;;;;;;9.96;68.19;100059.94;4949144;29;20055;-56
2021/10/28 20:39:43;;;;;;;8.57;4.78;;;;;;;9.90;67.27;100051.44;4949676;28;20039;-57
2021/10/28 20:42:12;;;;;;;8.23;4.90;;;;;;;9.96;67.86;100069.47;4938466;29;20039;-57
2021/10/28 20:44:38;;;;;;;10.48;5.07;;;;;;;9.98;67.62;100054.72;4950612;28;20047;-56
2021/10/28 20:47:04;;;;;;;7.85;4.60;;;;;;;9.99;67.80;100049.47;4949299;29;20086;-56
2021/10/28 20:49:31;;;;;;;9.45;4.75;;;;;;;10.00;68.15;100060.69;4937727;29;20042;-52
2021/10/28 20:51:57;;;;;;;10.07;4.72;;;;;;;9.95;67.32;100046.97;4948217;29;20050;-55
2021/10/28 20:54:23;;;;;;;9.23;5.05;;;;;;;10.01;68.31;100067.59;4949115;29;20523;-53
2021/10/28 20:56:51;;;;;;;12.60;5.40;;;;;;;9.97;68.27;100063.38;4936632;29;20086;-54
2021/10/28 20:59:18;;;;;;;11.65;4.65;;;;;;;10.00;68.14;100071.09;4950075;28;20050;-51